sensor_id;sensor_type;location;lat;lon;timestamp;P1;durP1;ratioP1;P2;durP2;ratioP2
31730;SDS011;18310;55.586;12.286;2022-12-07T00:01:17;6.83;;;3.73;;
31730;SDS011;18310;55.586;12.286;2022-12-07T00:04:22;8.20;;;3.92;;
31730;SDS011;18310;55.586;12.286;2022-12-07T00:07:27;6.35;;;3.28;;
31730;SDS011;18310;55.586;12.286;2022-12-07T00:10:30;5.47;;;2.97;;
31730;SDS011;18310;55.586;12.286;2022-12-07T00:13:35;6.15;;;3.22;;
31730;SDS011;18310;55.586;12.286;2022-12-07T00:16:39;7.25;;;3.33;;
31730;SDS011;18310;55.586;12.286;2022-12-07T00:22:47;4.97;;;2.72;;
31730;SDS011;18310;55.586;12.286;2022-12-07T00:25:50;5.45;;;3.00;;
31730;SDS011;18310;55.586;12.286;2022-12-07T00:28:54;6.97;;;3.20;;
31730;SDS011;18310;55.586;12.286;2022-12-07T00:31:59;6.32;;;3.72;;
31730;SDS011;18310;55.586;12.286;2022-12-07T00:35:02;6.35;;;3.40;;
31730;SDS011;18310;55.586;12.286;2022-12-07T00:38:08;7.68;;;3.67;;
31730;SDS011;18310;55.586;12.286;2022-12-07T00:41:11;7.15;;;4.20;;
31730;SDS011;18310;55.586;12.286;2022-12-07T00:44:17;5.97;;;3.42;;
31730;SDS011;18310;55.586;12.286;2022-12-07T00:47:20;7.10;;;4.22;;
31730;SDS011;18310;55.586;12.286;2022-12-07T00:50:23;6.28;;;4.10;;
31730;SDS011;18310;55.586;12.286;2022-12-07T00:53:28;5.78;;;3.78;;
31730;SDS011;18310;55.586;12.286;2022-12-07T00:56:34;6.45;;;3.97;;
31730;SDS011;18310;55.586;12.286;2022-12-07T00:59:37;7.33;;;4.70;;
31730;SDS011;18310;55.586;12.286;2022-12-07T01:02:40;9.90;;;4.72;;
31730;SDS011;18310;55.586;12.286;2022-12-07T01:05:48;7.68;;;4.70;;
31730;SDS011;18310;55.586;12.286;2022-12-07T01:08:54;9.90;;;4.32;;
31730;SDS011;18310;55.586;12.286;2022-12-07T01:11:58;7.50;;;4.60;;
31730;SDS011;18310;55.586;12.286;2022-12-07T01:15:01;7.22;;;4.60;;
31730;SDS011;18310;55.586;12.286;2022-12-07T01:18:04;8.50;;;4.60;;
31730;SDS011;18310;55.586;12.286;2022-12-07T01:21:07;10.00;;;5.43;;
31730;SDS011;18310;55.586;12.286;2022-12-07T01:24:15;9.50;;;4.82;;
31730;SDS011;18310;55.586;12.286;2022-12-07T01:27:18;8.70;;;5.00;;
31730;SDS011;18310;55.586;12.286;2022-12-07T01:30:21;7.88;;;5.13;;
31730;SDS011;18310;55.586;12.286;2022-12-07T01:33:26;8.13;;;4.60;;
31730;SDS011;18310;55.586;12.286;2022-12-07T01:36:31;9.27;;;4.60;;
31730;SDS011;18310;55.586;12.286;2022-12-07T01:39:38;8.38;;;4.85;;
31730;SDS011;18310;55.586;12.286;2022-12-07T01:42:42;10.10;;;5.22;;
31730;SDS011;18310;55.586;12.286;2022-12-07T01:45:51;6.97;;;4.35;;
31730;SDS011;18310;55.586;12.286;2022-12-07T01:48:54;8.02;;;4.93;;
31730;SDS011;18310;55.586;12.286;2022-12-07T01:52:00;8.47;;;4.80;;
31730;SDS011;18310;55.586;12.286;2022-12-07T01:55:13;8.53;;;4.43;;
31730;SDS011;18310;55.586;12.286;2022-12-07T01:58:18;8.02;;;4.65;;
31730;SDS011;18310;55.586;12.286;2022-12-07T02:01:23;8.20;;;5.03;;
31730;SDS011;18310;55.586;12.286;2022-12-07T02:04:26;7.47;;;4.40;;
31730;SDS011;18310;55.586;12.286;2022-12-07T02:07:29;10.18;;;4.65;;
31730;SDS011;18310;55.586;12.286;2022-12-07T02:10:37;7.68;;;4.70;;
31730;SDS011;18310;55.586;12.286;2022-12-07T02:13:41;7.28;;;4.53;;
31730;SDS011;18310;55.586;12.286;2022-12-07T02:16:48;8.77;;;4.30;;
31730;SDS011;18310;55.586;12.286;2022-12-07T02:20:11;7.68;;;4.53;;
31730;SDS011;18310;55.586;12.286;2022-12-07T02:23:47;7.80;;;4.35;;
31730;SDS011;18310;55.586;12.286;2022-12-07T02:27:37;7.18;;;4.43;;
31730;SDS011;18310;55.586;12.286;2022-12-07T02:30:50;9.98;;;5.15;;
31730;SDS011;18310;55.586;12.286;2022-12-07T02:34:01;7.00;;;4.40;;
31730;SDS011;18310;55.586;12.286;2022-12-07T02:37:15;7.53;;;4.57;;
31730;SDS011;18310;55.586;12.286;2022-12-07T02:40:31;9.50;;;4.70;;
31730;SDS011;18310;55.586;12.286;2022-12-07T02:43:41;8.05;;;4.57;;
31730;SDS011;18310;55.586;12.286;2022-12-07T02:46:52;7.55;;;4.78;;
31730;SDS011;18310;55.586;12.286;2022-12-07T02:50:02;9.93;;;5.03;;
31730;SDS011;18310;55.586;12.286;2022-12-07T02:56:38;6.97;;;4.47;;
31730;SDS011;18310;55.586;12.286;2022-12-07T02:59:55;7.75;;;4.72;;
31730;SDS011;18310;55.586;12.286;2022-12-07T03:03:09;10.25;;;5.65;;
31730;SDS011;18310;55.586;12.286;2022-12-07T03:06:18;9.43;;;5.20;;
31730;SDS011;18310;55.586;12.286;2022-12-07T03:09:30;7.82;;;4.45;;
31730;SDS011;18310;55.586;12.286;2022-12-07T03:12:43;8.93;;;5.22;;
31730;SDS011;18310;55.586;12.286;2022-12-07T03:15:54;8.57;;;5.38;;
31730;SDS011;18310;55.586;12.286;2022-12-07T03:19:08;11.77;;;5.10;;
31730;SDS011;18310;55.586;12.286;2022-12-07T03:22:16;9.88;;;5.32;;
31730;SDS011;18310;55.586;12.286;2022-12-07T03:25:22;10.65;;;5.10;;
31730;SDS011;18310;55.586;12.286;2022-12-07T03:28:26;9.15;;;4.70;;
31730;SDS011;18310;55.586;12.286;2022-12-07T03:31:35;9.18;;;5.50;;
31730;SDS011;18310;55.586;12.286;2022-12-07T03:34:46;9.43;;;4.93;;
31730;SDS011;18310;55.586;12.286;2022-12-07T03:37:56;8.10;;;4.88;;
31730;SDS011;18310;55.586;12.286;2022-12-07T03:41:03;10.38;;;4.55;;
31730;SDS011;18310;55.586;12.286;2022-12-07T03:44:11;9.85;;;5.25;;
31730;SDS011;18310;55.586;12.286;2022-12-07T03:47:19;10.18;;;5.25;;
31730;SDS011;18310;55.586;12.286;2022-12-07T03:50:32;7.88;;;4.70;;
31730;SDS011;18310;55.586;12.286;2022-12-07T03:53:46;9.15;;;4.75;;
31730;SDS011;18310;55.586;12.286;2022-12-07T03:56:57;7.78;;;4.75;;
31730;SDS011;18310;55.586;12.286;2022-12-07T04:00:03;11.05;;;5.32;;
31730;SDS011;18310;55.586;12.286;2022-12-07T04:03:09;7.03;;;4.72;;
31730;SDS011;18310;55.586;12.286;2022-12-07T04:06:14;13.20;;;4.78;;
31730;SDS011;18310;55.586;12.286;2022-12-07T04:09:18;9.20;;;5.20;;
31730;SDS011;18310;55.586;12.286;2022-12-07T04:12:22;9.38;;;4.90;;
31730;SDS011;18310;55.586;12.286;2022-12-07T04:15:25;8.75;;;4.90;;
31730;SDS011;18310;55.586;12.286;2022-12-07T04:18:28;9.68;;;5.20;;
31730;SDS011;18310;55.586;12.286;2022-12-07T04:21:32;7.68;;;4.82;;
31730;SDS011;18310;55.586;12.286;2022-12-07T04:24:35;9.85;;;5.28;;
31730;SDS011;18310;55.586;12.286;2022-12-07T04:27:38;10.82;;;5.15;;
31730;SDS011;18310;55.586;12.286;2022-12-07T04:30:42;11.45;;;4.93;;
31730;SDS011;18310;55.586;12.286;2022-12-07T04:33:45;9.18;;;4.80;;
31730;SDS011;18310;55.586;12.286;2022-12-07T04:36:49;7.47;;;4.80;;
31730;SDS011;18310;55.586;12.286;2022-12-07T04:39:52;9.57;;;4.82;;
31730;SDS011;18310;55.586;12.286;2022-12-07T04:42:55;8.13;;;4.72;;
31730;SDS011;18310;55.586;12.286;2022-12-07T04:45:58;11.07;;;4.72;;
31730;SDS011;18310;55.586;12.286;2022-12-07T04:49:01;8.73;;;4.63;;
31730;SDS011;18310;55.586;12.286;2022-12-07T04:52:06;10.50;;;5.28;;
31730;SDS011;18310;55.586;12.286;2022-12-07T04:55:09;9.35;;;5.28;;
31730;SDS011;18310;55.586;12.286;2022-12-07T04:58:12;8.45;;;4.55;;
31730;SDS011;18310;55.586;12.286;2022-12-07T05:01:16;8.27;;;4.75;;
31730;SDS011;18310;55.586;12.286;2022-12-07T05:04:20;10.27;;;4.78;;
31730;SDS011;18310;55.586;12.286;2022-12-07T05:07:24;8.98;;;4.70;;
31730;SDS011;18310;55.586;12.286;2022-12-07T05:10:27;9.07;;;4.47;;
31730;SDS011;18310;55.586;12.286;2022-12-07T05:13:31;9.52;;;4.78;;
31730;SDS011;18310;55.586;12.286;2022-12-07T05:19:38;7.43;;;4.35;;
31730;SDS011;18310;55.586;12.286;2022-12-07T05:22:42;7.22;;;4.25;;
31730;SDS011;18310;55.586;12.286;2022-12-07T05:25:46;10.18;;;4.85;;
31730;SDS011;18310;55.586;12.286;2022-12-07T05:28:50;8.98;;;4.97;;
31730;SDS011;18310;55.586;12.286;2022-12-07T05:31:54;9.30;;;4.95;;
31730;SDS011;18310;55.586;12.286;2022-12-07T05:34:57;9.45;;;5.28;;
31730;SDS011;18310;55.586;12.286;2022-12-07T05:38:01;8.73;;;4.53;;
31730;SDS011;18310;55.586;12.286;2022-12-07T05:41:05;10.77;;;5.50;;
31730;SDS011;18310;55.586;12.286;2022-12-07T05:44:30;8.93;;;5.03;;
31730;SDS011;18310;55.586;12.286;2022-12-07T05:47:33;8.15;;;4.80;;
31730;SDS011;18310;55.586;12.286;2022-12-07T05:50:36;11.07;;;5.80;;
31730;SDS011;18310;55.586;12.286;2022-12-07T05:53:40;8.90;;;4.95;;
31730;SDS011;18310;55.586;12.286;2022-12-07T05:56:43;8.77;;;4.63;;
31730;SDS011;18310;55.586;12.286;2022-12-07T05:59:46;8.00;;;4.85;;
31730;SDS011;18310;55.586;12.286;2022-12-07T06:02:49;7.25;;;4.43;;
31730;SDS011;18310;55.586;12.286;2022-12-07T06:05:53;9.33;;;4.60;;
31730;SDS011;18310;55.586;12.286;2022-12-07T06:08:57;9.70;;;4.60;;
31730;SDS011;18310;55.586;12.286;2022-12-07T06:12:01;8.23;;;4.60;;
31730;SDS011;18310;55.586;12.286;2022-12-07T06:15:23;9.77;;;4.22;;
31730;SDS011;18310;55.586;12.286;2022-12-07T06:18:27;7.60;;;4.32;;
31730;SDS011;18310;55.586;12.286;2022-12-07T06:21:30;9.00;;;4.72;;
31730;SDS011;18310;55.586;12.286;2022-12-07T06:24:34;9.07;;;4.18;;
31730;SDS011;18310;55.586;12.286;2022-12-07T06:27:37;10.50;;;4.70;;
31730;SDS011;18310;55.586;12.286;2022-12-07T06:30:40;8.10;;;4.47;;
31730;SDS011;18310;55.586;12.286;2022-12-07T06:33:43;14.13;;;5.25;;
31730;SDS011;18310;55.586;12.286;2022-12-07T06:36:47;11.30;;;5.25;;
31730;SDS011;18310;55.586;12.286;2022-12-07T06:39:54;11.80;;;5.32;;
31730;SDS011;18310;55.586;12.286;2022-12-07T06:42:57;9.88;;;5.22;;
31730;SDS011;18310;55.586;12.286;2022-12-07T06:46:00;13.68;;;5.82;;
31730;SDS011;18310;55.586;12.286;2022-12-07T06:49:03;12.43;;;5.77;;
31730;SDS011;18310;55.586;12.286;2022-12-07T06:52:07;11.88;;;5.55;;
31730;SDS011;18310;55.586;12.286;2022-12-07T06:55:12;13.73;;;5.47;;
31730;SDS011;18310;55.586;12.286;2022-12-07T06:58:15;10.05;;;5.43;;
31730;SDS011;18310;55.586;12.286;2022-12-07T07:01:19;9.90;;;5.43;;
31730;SDS011;18310;55.586;12.286;2022-12-07T07:04:22;9.70;;;5.55;;
31730;SDS011;18310;55.586;12.286;2022-12-07T07:07:26;10.67;;;5.47;;
31730;SDS011;18310;55.586;12.286;2022-12-07T07:10:30;12.82;;;4.78;;
31730;SDS011;18310;55.586;12.286;2022-12-07T07:13:33;8.52;;;4.93;;
31730;SDS011;18310;55.586;12.286;2022-12-07T07:16:37;12.23;;;5.97;;
31730;SDS011;18310;55.586;12.286;2022-12-07T07:19:40;12.47;;;4.77;;
31730;SDS011;18310;55.586;12.286;2022-12-07T07:22:43;10.82;;;4.80;;
31730;SDS011;18310;55.586;12.286;2022-12-07T07:25:48;12.53;;;6.20;;
31730;SDS011;18310;55.586;12.286;2022-12-07T07:28:51;12.55;;;5.93;;
31730;SDS011;18310;55.586;12.286;2022-12-07T07:31:54;11.18;;;5.55;;
31730;SDS011;18310;55.586;12.286;2022-12-07T07:35:05;13.50;;;6.30;;
31730;SDS011;18310;55.586;12.286;2022-12-07T07:38:09;12.10;;;5.97;;
31730;SDS011;18310;55.586;12.286;2022-12-07T07:41:14;12.98;;;5.57;;
31730;SDS011;18310;55.586;12.286;2022-12-07T07:44:17;12.30;;;6.22;;
31730;SDS011;18310;55.586;12.286;2022-12-07T07:47:20;12.75;;;5.78;;
31730;SDS011;18310;55.586;12.286;2022-12-07T07:50:24;12.32;;;6.60;;
31730;SDS011;18310;55.586;12.286;2022-12-07T07:53:27;13.35;;;6.70;;
31730;SDS011;18310;55.586;12.286;2022-12-07T07:56:32;15.70;;;6.10;;
31730;SDS011;18310;55.586;12.286;2022-12-07T07:59:35;11.52;;;6.68;;
31730;SDS011;18310;55.586;12.286;2022-12-07T08:02:38;12.38;;;7.15;;
31730;SDS011;18310;55.586;12.286;2022-12-07T08:05:42;13.48;;;6.53;;
31730;SDS011;18310;55.586;12.286;2022-12-07T08:08:45;12.00;;;7.30;;
31730;SDS011;18310;55.586;12.286;2022-12-07T08:11:50;11.90;;;7.18;;
31730;SDS011;18310;55.586;12.286;2022-12-07T08:14:53;13.85;;;7.45;;
31730;SDS011;18310;55.586;12.286;2022-12-07T08:17:56;11.70;;;7.07;;
31730;SDS011;18310;55.586;12.286;2022-12-07T08:21:00;11.52;;;7.13;;
31730;SDS011;18310;55.586;12.286;2022-12-07T08:24:03;14.57;;;7.53;;
31730;SDS011;18310;55.586;12.286;2022-12-07T08:27:08;12.75;;;7.57;;
31730;SDS011;18310;55.586;12.286;2022-12-07T08:30:11;12.25;;;6.95;;
31730;SDS011;18310;55.586;12.286;2022-12-07T08:33:15;15.10;;;8.13;;
31730;SDS011;18310;55.586;12.286;2022-12-07T08:36:18;13.67;;;7.57;;
31730;SDS011;18310;55.586;12.286;2022-12-07T08:42:34;10.82;;;7.03;;
31730;SDS011;18310;55.586;12.286;2022-12-07T08:45:41;13.23;;;7.75;;
31730;SDS011;18310;55.586;12.286;2022-12-07T08:48:45;11.15;;;6.93;;
31730;SDS011;18310;55.586;12.286;2022-12-07T08:51:53;12.13;;;7.70;;
31730;SDS011;18310;55.586;12.286;2022-12-07T08:54:57;12.07;;;6.85;;
31730;SDS011;18310;55.586;12.286;2022-12-07T08:58:03;15.15;;;7.53;;
31730;SDS011;18310;55.586;12.286;2022-12-07T09:01:06;15.73;;;7.93;;
31730;SDS011;18310;55.586;12.286;2022-12-07T09:04:10;14.70;;;8.00;;
31730;SDS011;18310;55.586;12.286;2022-12-07T09:07:13;16.40;;;7.93;;
31730;SDS011;18310;55.586;12.286;2022-12-07T09:10:17;12.77;;;6.80;;
31730;SDS011;18310;55.586;12.286;2022-12-07T09:13:21;12.40;;;6.85;;
31730;SDS011;18310;55.586;12.286;2022-12-07T09:16:24;12.25;;;7.43;;
31730;SDS011;18310;55.586;12.286;2022-12-07T09:19:28;19.23;;;7.50;;
31730;SDS011;18310;55.586;12.286;2022-12-07T09:22:31;11.60;;;6.65;;
31730;SDS011;18310;55.586;12.286;2022-12-07T09:25:35;14.77;;;7.38;;
31730;SDS011;18310;55.586;12.286;2022-12-07T09:28:39;11.75;;;7.30;;
31730;SDS011;18310;55.586;12.286;2022-12-07T09:31:42;13.82;;;7.68;;
31730;SDS011;18310;55.586;12.286;2022-12-07T09:34:45;9.15;;;5.65;;
31730;SDS011;18310;55.586;12.286;2022-12-07T09:37:48;12.67;;;5.53;;
31730;SDS011;18310;55.586;12.286;2022-12-07T09:40:52;13.33;;;6.00;;
31730;SDS011;18310;55.586;12.286;2022-12-07T09:44:02;10.18;;;4.82;;
31730;SDS011;18310;55.586;12.286;2022-12-07T09:47:07;8.65;;;4.70;;
31730;SDS011;18310;55.586;12.286;2022-12-07T09:50:14;11.18;;;5.47;;
31730;SDS011;18310;55.586;12.286;2022-12-07T09:53:22;8.30;;;5.05;;
31730;SDS011;18310;55.586;12.286;2022-12-07T09:56:30;8.82;;;4.47;;
31730;SDS011;18310;55.586;12.286;2022-12-07T09:59:35;8.63;;;3.92;;
31730;SDS011;18310;55.586;12.286;2022-12-07T10:02:38;9.68;;;4.85;;
31730;SDS011;18310;55.586;12.286;2022-12-07T10:05:45;7.53;;;4.93;;
31730;SDS011;18310;55.586;12.286;2022-12-07T10:08:52;10.50;;;4.85;;
31730;SDS011;18310;55.586;12.286;2022-12-07T10:11:59;7.93;;;4.75;;
31730;SDS011;18310;55.586;12.286;2022-12-07T10:15:09;9.02;;;3.95;;
31730;SDS011;18310;55.586;12.286;2022-12-07T10:18:26;7.45;;;3.67;;
31730;SDS011;18310;55.586;12.286;2022-12-07T10:21:33;10.43;;;3.88;;
31730;SDS011;18310;55.586;12.286;2022-12-07T10:24:36;7.65;;;3.67;;
31730;SDS011;18310;55.586;12.286;2022-12-07T10:27:40;6.97;;;3.80;;
31730;SDS011;18310;55.586;12.286;2022-12-07T10:30:49;7.63;;;4.20;;
31730;SDS011;18310;55.586;12.286;2022-12-07T10:40:24;7.70;;;4.25;;
31730;SDS011;18310;55.586;12.286;2022-12-07T10:43:31;9.27;;;4.95;;
31730;SDS011;18310;55.586;12.286;2022-12-07T10:53:47;11.10;;;5.00;;
31730;SDS011;18310;55.586;12.286;2022-12-07T10:57:07;9.05;;;4.47;;
31730;SDS011;18310;55.586;12.286;2022-12-07T11:00:30;7.47;;;4.00;;
31730;SDS011;18310;55.586;12.286;2022-12-07T11:03:46;6.63;;;3.45;;
31730;SDS011;18310;55.586;12.286;2022-12-07T11:07:22;6.50;;;4.00;;
31730;SDS011;18310;55.586;12.286;2022-12-07T11:10:42;5.93;;;2.92;;
31730;SDS011;18310;55.586;12.286;2022-12-07T11:13:59;5.68;;;2.88;;
31730;SDS011;18310;55.586;12.286;2022-12-07T11:17:14;3.85;;;2.25;;
31730;SDS011;18310;55.586;12.286;2022-12-07T11:20:33;6.38;;;2.35;;
31730;SDS011;18310;55.586;12.286;2022-12-07T11:23:47;2.63;;;1.15;;
31730;SDS011;18310;55.586;12.286;2022-12-07T11:27:07;1.92;;;0.60;;
31730;SDS011;18310;55.586;12.286;2022-12-07T11:30:25;2.63;;;0.80;;
31730;SDS011;18310;55.586;12.286;2022-12-07T11:33:37;3.00;;;0.40;;
31730;SDS011;18310;55.586;12.286;2022-12-07T11:36:49;1.90;;;0.60;;
31730;SDS011;18310;55.586;12.286;2022-12-07T11:39:58;1.05;;;0.38;;
31730;SDS011;18310;55.586;12.286;2022-12-07T11:43:09;1.98;;;0.40;;
31730;SDS011;18310;55.586;12.286;2022-12-07T11:46:24;1.38;;;0.40;;
31730;SDS011;18310;55.586;12.286;2022-12-07T11:49:41;0.70;;;0.30;;
31730;SDS011;18310;55.586;12.286;2022-12-07T11:52:51;2.55;;;0.40;;
31730;SDS011;18310;55.586;12.286;2022-12-07T11:56:02;1.25;;;0.30;;
31730;SDS011;18310;55.586;12.286;2022-12-07T11:59:12;2.30;;;0.50;;
31730;SDS011;18310;55.586;12.286;2022-12-07T12:02:23;0.57;;;0.20;;
31730;SDS011;18310;55.586;12.286;2022-12-07T12:05:35;1.25;;;0.20;;
31730;SDS011;18310;55.586;12.286;2022-12-07T12:08:40;0.95;;;0.30;;
31730;SDS011;18310;55.586;12.286;2022-12-07T12:12:19;1.23;;;0.20;;
31730;SDS011;18310;55.586;12.286;2022-12-07T12:16:15;0.63;;;0.22;;
31730;SDS011;18310;55.586;12.286;2022-12-07T12:19:40;0.25;;;0.20;;
31730;SDS011;18310;55.586;12.286;2022-12-07T12:22:48;0.70;;;0.30;;
31730;SDS011;18310;55.586;12.286;2022-12-07T12:26:00;1.20;;;0.47;;
31730;SDS011;18310;55.586;12.286;2022-12-07T12:29:18;0.73;;;0.30;;
31730;SDS011;18310;55.586;12.286;2022-12-07T12:32:30;1.45;;;0.52;;
31730;SDS011;18310;55.586;12.286;2022-12-07T12:35:41;1.25;;;0.70;;
31730;SDS011;18310;55.586;12.286;2022-12-07T12:38:48;2.83;;;0.80;;
31730;SDS011;18310;55.586;12.286;2022-12-07T12:41:59;2.38;;;0.85;;
31730;SDS011;18310;55.586;12.286;2022-12-07T12:48:27;2.45;;;1.10;;
31730;SDS011;18310;55.586;12.286;2022-12-07T12:51:39;2.03;;;0.95;;
31730;SDS011;18310;55.586;12.286;2022-12-07T12:54:57;3.65;;;1.30;;
31730;SDS011;18310;55.586;12.286;2022-12-07T13:01:40;4.38;;;2.80;;
31730;SDS011;18310;55.586;12.286;2022-12-07T13:07:59;6.78;;;3.60;;
31730;SDS011;18310;55.586;12.286;2022-12-07T13:11:16;7.05;;;3.83;;
31730;SDS011;18310;55.586;12.286;2022-12-07T13:14:51;8.90;;;4.78;;
31730;SDS011;18310;55.586;12.286;2022-12-07T13:17:59;5.70;;;3.88;;
31730;SDS011;18310;55.586;12.286;2022-12-07T13:24:43;9.93;;;4.47;;
31730;SDS011;18310;55.586;12.286;2022-12-07T13:27:47;8.02;;;4.30;;
31730;SDS011;18310;55.586;12.286;2022-12-07T13:31:11;7.03;;;4.15;;
31730;SDS011;18310;55.586;12.286;2022-12-07T13:34:36;5.40;;;3.00;;
31730;SDS011;18310;55.586;12.286;2022-12-07T13:37:41;5.03;;;3.22;;
31730;SDS011;18310;55.586;12.286;2022-12-07T13:40:58;5.15;;;3.17;;
31730;SDS011;18310;55.586;12.286;2022-12-07T13:44:08;6.20;;;3.25;;
31730;SDS011;18310;55.586;12.286;2022-12-07T13:47:17;5.78;;;3.10;;
31730;SDS011;18310;55.586;12.286;2022-12-07T13:50:33;5.30;;;3.05;;
31730;SDS011;18310;55.586;12.286;2022-12-07T13:53:45;4.50;;;2.78;;
31730;SDS011;18310;55.586;12.286;2022-12-07T13:56:50;4.68;;;2.50;;
31730;SDS011;18310;55.586;12.286;2022-12-07T13:59:55;4.90;;;2.33;;
31730;SDS011;18310;55.586;12.286;2022-12-07T14:03:02;4.20;;;2.15;;
31730;SDS011;18310;55.586;12.286;2022-12-07T14:06:23;4.15;;;2.40;;
31730;SDS011;18310;55.586;12.286;2022-12-07T14:09:29;4.70;;;2.55;;
31730;SDS011;18310;55.586;12.286;2022-12-07T14:12:34;5.10;;;3.03;;
31730;SDS011;18310;55.586;12.286;2022-12-07T14:15:39;5.03;;;2.85;;
31730;SDS011;18310;55.586;12.286;2022-12-07T14:18:43;5.75;;;2.90;;
31730;SDS011;18310;55.586;12.286;2022-12-07T14:21:47;6.35;;;2.90;;
31730;SDS011;18310;55.586;12.286;2022-12-07T14:25:15;4.85;;;2.75;;
31730;SDS011;18310;55.586;12.286;2022-12-07T14:28:27;6.22;;;2.65;;
31730;SDS011;18310;55.586;12.286;2022-12-07T14:31:32;5.53;;;2.97;;
31730;SDS011;18310;55.586;12.286;2022-12-07T14:34:37;5.60;;;2.67;;
31730;SDS011;18310;55.586;12.286;2022-12-07T14:37:40;4.68;;;2.63;;
31730;SDS011;18310;55.586;12.286;2022-12-07T14:40:47;6.32;;;2.72;;
31730;SDS011;18310;55.586;12.286;2022-12-07T14:43:51;6.35;;;3.08;;
31730;SDS011;18310;55.586;12.286;2022-12-07T14:47:14;5.80;;;2.83;;
31730;SDS011;18310;55.586;12.286;2022-12-07T14:50:40;5.03;;;3.00;;
31730;SDS011;18310;55.586;12.286;2022-12-07T14:54:06;5.10;;;2.70;;
31730;SDS011;18310;55.586;12.286;2022-12-07T14:57:18;5.57;;;2.92;;
31730;SDS011;18310;55.586;12.286;2022-12-07T15:00:21;6.63;;;3.87;;
31730;SDS011;18310;55.586;12.286;2022-12-07T15:03:26;6.63;;;3.75;;
31730;SDS011;18310;55.586;12.286;2022-12-07T15:06:30;5.75;;;3.13;;
31730;SDS011;18310;55.586;12.286;2022-12-07T15:09:34;6.65;;;3.33;;
31730;SDS011;18310;55.586;12.286;2022-12-07T15:12:37;7.60;;;3.60;;
31730;SDS011;18310;55.586;12.286;2022-12-07T15:15:40;9.53;;;4.20;;
31730;SDS011;18310;55.586;12.286;2022-12-07T15:18:43;8.27;;;5.07;;
31730;SDS011;18310;55.586;12.286;2022-12-07T15:22:08;10.00;;;5.70;;
31730;SDS011;18310;55.586;12.286;2022-12-07T15:25:12;8.52;;;5.35;;
31730;SDS011;18310;55.586;12.286;2022-12-07T15:28:16;13.80;;;5.13;;
31730;SDS011;18310;55.586;12.286;2022-12-07T15:31:19;9.17;;;5.37;;
31730;SDS011;18310;55.586;12.286;2022-12-07T15:34:42;9.90;;;5.90;;
31730;SDS011;18310;55.586;12.286;2022-12-07T15:37:46;9.73;;;6.10;;
31730;SDS011;18310;55.586;12.286;2022-12-07T15:40:50;8.95;;;5.47;;
31730;SDS011;18310;55.586;12.286;2022-12-07T15:43:53;6.45;;;3.97;;
31730;SDS011;18310;55.586;12.286;2022-12-07T15:47:13;5.90;;;3.88;;
31730;SDS011;18310;55.586;12.286;2022-12-07T15:50:16;6.30;;;3.55;;
31730;SDS011;18310;55.586;12.286;2022-12-07T15:53:20;7.40;;;3.13;;
31730;SDS011;18310;55.586;12.286;2022-12-07T15:56:24;4.90;;;2.50;;
31730;SDS011;18310;55.586;12.286;2022-12-07T15:59:27;5.90;;;1.97;;
31730;SDS011;18310;55.586;12.286;2022-12-07T16:02:31;5.20;;;2.10;;
31730;SDS011;18310;55.586;12.286;2022-12-07T16:05:40;5.53;;;2.67;;
31730;SDS011;18310;55.586;12.286;2022-12-07T16:08:45;6.75;;;3.38;;
31730;SDS011;18310;55.586;12.286;2022-12-07T16:11:48;6.05;;;3.22;;
31730;SDS011;18310;55.586;12.286;2022-12-07T16:14:53;6.47;;;2.92;;
31730;SDS011;18310;55.586;12.286;2022-12-07T16:17:56;4.77;;;2.30;;
31730;SDS011;18310;55.586;12.286;2022-12-07T16:20:59;6.70;;;2.33;;
31730;SDS011;18310;55.586;12.286;2022-12-07T16:24:04;5.40;;;2.30;;
31730;SDS011;18310;55.586;12.286;2022-12-07T16:27:08;5.75;;;2.70;;
31730;SDS011;18310;55.586;12.286;2022-12-07T16:30:11;4.03;;;1.90;;
31730;SDS011;18310;55.586;12.286;2022-12-07T16:33:17;6.88;;;3.05;;
31730;SDS011;18310;55.586;12.286;2022-12-07T16:36:20;6.10;;;2.95;;
31730;SDS011;18310;55.586;12.286;2022-12-07T16:39:46;5.68;;;2.50;;
31730;SDS011;18310;55.586;12.286;2022-12-07T16:42:49;4.78;;;2.22;;
31730;SDS011;18310;55.586;12.286;2022-12-07T16:45:53;4.07;;;1.75;;
31730;SDS011;18310;55.586;12.286;2022-12-07T16:48:56;5.07;;;1.93;;
31730;SDS011;18310;55.586;12.286;2022-12-07T16:51:59;4.27;;;2.17;;
31730;SDS011;18310;55.586;12.286;2022-12-07T16:55:22;4.60;;;2.28;;
31730;SDS011;18310;55.586;12.286;2022-12-07T16:58:25;7.00;;;3.58;;
31730;SDS011;18310;55.586;12.286;2022-12-07T17:01:28;7.57;;;3.33;;
31730;SDS011;18310;55.586;12.286;2022-12-07T17:04:32;7.50;;;3.00;;
31730;SDS011;18310;55.586;12.286;2022-12-07T17:07:36;5.10;;;2.30;;
31730;SDS011;18310;55.586;12.286;2022-12-07T17:10:42;6.13;;;2.13;;
31730;SDS011;18310;55.586;12.286;2022-12-07T17:13:46;4.53;;;1.88;;
31730;SDS011;18310;55.586;12.286;2022-12-07T17:17:08;7.10;;;2.25;;
31730;SDS011;18310;55.586;12.286;2022-12-07T17:20:11;5.70;;;2.33;;
31730;SDS011;18310;55.586;12.286;2022-12-07T17:23:16;4.22;;;2.67;;
31730;SDS011;18310;55.586;12.286;2022-12-07T17:26:21;5.35;;;2.42;;
31730;SDS011;18310;55.586;12.286;2022-12-07T17:29:35;5.32;;;1.80;;
31730;SDS011;18310;55.586;12.286;2022-12-07T17:32:38;4.25;;;1.67;;
31730;SDS011;18310;55.586;12.286;2022-12-07T17:35:41;3.63;;;1.30;;
31730;SDS011;18310;55.586;12.286;2022-12-07T17:38:45;3.70;;;1.80;;
31730;SDS011;18310;55.586;12.286;2022-12-07T17:41:50;8.90;;;1.77;;
31730;SDS011;18310;55.586;12.286;2022-12-07T17:45:11;3.70;;;1.42;;
31730;SDS011;18310;55.586;12.286;2022-12-07T17:48:15;5.10;;;2.10;;
31730;SDS011;18310;55.586;12.286;2022-12-07T17:51:18;7.78;;;1.92;;
31730;SDS011;18310;55.586;12.286;2022-12-07T17:54:39;7.13;;;1.90;;
31730;SDS011;18310;55.586;12.286;2022-12-07T17:57:43;6.90;;;2.43;;
31730;SDS011;18310;55.586;12.286;2022-12-07T18:00:46;5.97;;;2.58;;
31730;SDS011;18310;55.586;12.286;2022-12-07T18:03:49;5.40;;;2.27;;
31730;SDS011;18310;55.586;12.286;2022-12-07T18:06:52;7.38;;;2.80;;
31730;SDS011;18310;55.586;12.286;2022-12-07T18:09:56;10.30;;;3.30;;
31730;SDS011;18310;55.586;12.286;2022-12-07T18:13:00;12.03;;;4.00;;
31730;SDS011;18310;55.586;12.286;2022-12-07T18:16:22;8.77;;;4.22;;
31730;SDS011;18310;55.586;12.286;2022-12-07T18:19:28;13.60;;;7.45;;
31730;SDS011;18310;55.586;12.286;2022-12-07T18:22:31;14.73;;;8.18;;
31730;SDS011;18310;55.586;12.286;2022-12-07T18:25:34;22.07;;;10.00;;
31730;SDS011;18310;55.586;12.286;2022-12-07T18:28:39;22.88;;;10.88;;
31730;SDS011;18310;55.586;12.286;2022-12-07T18:31:42;17.60;;;9.30;;
31730;SDS011;18310;55.586;12.286;2022-12-07T18:34:47;17.10;;;10.05;;
31730;SDS011;18310;55.586;12.286;2022-12-07T18:37:50;16.52;;;9.65;;
31730;SDS011;18310;55.586;12.286;2022-12-07T18:40:53;18.27;;;8.50;;
31730;SDS011;18310;55.586;12.286;2022-12-07T18:43:57;13.00;;;5.90;;
31730;SDS011;18310;55.586;12.286;2022-12-07T18:47:00;10.82;;;4.25;;
31730;SDS011;18310;55.586;12.286;2022-12-07T18:50:04;5.30;;;2.70;;
31730;SDS011;18310;55.586;12.286;2022-12-07T18:53:08;8.43;;;3.13;;
31730;SDS011;18310;55.586;12.286;2022-12-07T18:56:12;7.68;;;2.70;;
31730;SDS011;18310;55.586;12.286;2022-12-07T18:59:19;4.35;;;2.20;;
31730;SDS011;18310;55.586;12.286;2022-12-07T19:02:40;7.82;;;2.40;;
31730;SDS011;18310;55.586;12.286;2022-12-07T19:05:43;5.67;;;2.77;;
31730;SDS011;18310;55.586;12.286;2022-12-07T19:08:46;6.47;;;3.07;;